createdAt,value
2017-12-25T00:00:14.232Z,9.38
2017-12-25T00:00:54.723Z,9.42
2017-12-25T00:01:35.223Z,9.43
2017-12-25T00:02:15.759Z,9.46
2017-12-25T00:02:56.273Z,9.42
2017-12-25T00:03:36.781Z,9.39
2017-12-25T00:04:17.336Z,9.46
2017-12-25T00:04:57.872Z,9.46
2017-12-25T00:05:38.415Z,9.42
2017-12-25T00:06:18.929Z,9.46
2017-12-25T00:06:59.448Z,9.4
2017-12-25T00:07:39.980Z,9.38
2017-12-25T00:08:20.506Z,9.32
2017-12-25T00:09:01.039Z,9.33
2017-12-25T00:09:41.587Z,9.32
2017-12-25T00:10:22.111Z,9.35
2017-12-25T00:11:02.636Z,9.39
2017-12-25T00:11:43.168Z,9.4
2017-12-25T00:12:23.689Z,9.38
2017-12-25T00:13:04.229Z,9.38
2017-12-25T00:13:44.740Z,9.46
2017-12-25T00:14:25.268Z,9.36
2017-12-25T00:15:05.810Z,9.42
2017-12-25T00:15:46.344Z,9.32
2017-12-25T00:16:26.881Z,9.39
2017-12-25T00:17:07.471Z,9.4
2017-12-25T00:17:48.015Z,9.36
2017-12-25T00:18:28.550Z,9.29
2017-12-25T00:19:09.095Z,9.33
2017-12-25T00:19:49.613Z,9.29
2017-12-25T00:20:30.129Z,9.35
2017-12-25T00:21:10.642Z,9.36
2017-12-25T00:21:51.184Z,9.33
2017-12-25T00:22:31.756Z,9.28
2017-12-25T00:23:12.240Z,9.32
2017-12-25T00:23:52.770Z,9.33
2017-12-25T00:24:33.320Z,9.36
2017-12-25T00:25:13.836Z,9.33
2017-12-25T00:25:54.377Z,9.33
2017-12-25T00:26:34.878Z,9.31
2017-12-25T00:27:15.429Z,9.33
2017-12-25T00:27:55.946Z,9.32
2017-12-25T00:28:36.462Z,9.31
2017-12-25T00:29:16.981Z,9.31
2017-12-25T00:29:57.515Z,9.32
2017-12-25T00:30:38.040Z,9.33
2017-12-25T00:31:18.562Z,9.33
2017-12-25T00:31:59.176Z,9.33
2017-12-25T00:32:39.835Z,9.31
2017-12-25T00:33:20.356Z,9.28
2017-12-25T00:34:00.964Z,9.31
2017-12-25T00:34:41.486Z,9.32
2017-12-25T00:35:21.996Z,9.29
2017-12-25T00:36:02.509Z,9.36
2017-12-25T00:36:43.061Z,9.24
2017-12-25T00:37:23.569Z,9.29
2017-12-25T00:38:04.114Z,9.31
2017-12-25T00:38:44.623Z,9.23
2017-12-25T00:39:25.139Z,9.24
2017-12-25T00:40:05.660Z,9.23
2017-12-25T00:40:46.202Z,9.24
2017-12-25T00:41:26.733Z,9.24
2017-12-25T00:42:07.266Z,9.28
2017-12-25T00:42:47.790Z,9.2
2017-12-25T00:43:28.335Z,9.23
2017-12-25T00:44:08.863Z,9.24
2017-12-25T00:44:49.405Z,9.23
2017-12-25T00:45:29.923Z,9.32
2017-12-25T00:46:10.438Z,9.33
2017-12-25T00:46:50.970Z,9.24
2017-12-25T00:47:31.502Z,9.24
2017-12-25T00:48:12.024Z,9.36
2017-12-25T00:48:52.544Z,9.35
2017-12-25T00:49:33.058Z,9.29
2017-12-25T00:50:13.582Z,9.33
2017-12-25T00:50:54.094Z,9.26
2017-12-25T00:51:34.600Z,9.32
2017-12-25T00:52:15.118Z,9.32
2017-12-25T00:52:55.644Z,9.32
2017-12-25T00:53:36.179Z,9.35
2017-12-25T00:54:16.729Z,9.39
2017-12-25T00:54:57.341Z,9.32
2017-12-25T00:55:37.846Z,9.31
2017-12-25T00:56:18.380Z,9.33
2017-12-25T00:56:58.896Z,9.36
2017-12-25T00:57:39.397Z,9.32
2017-12-25T00:58:19.908Z,9.31
2017-12-25T00:59:00.397Z,9.32
2017-12-25T00:59:40.947Z,9.33
2017-12-25T01:00:21.458Z,9.33
2017-12-25T01:01:01.975Z,9.33
2017-12-25T01:01:42.513Z,9.26
2017-12-25T01:02:23.044Z,9.31
2017-12-25T01:03:03.578Z,9.33
2017-12-25T01:03:44.075Z,9.33
2017-12-25T01:04:24.611Z,9.29
2017-12-25T01:05:05.127Z,9.31
2017-12-25T01:05:45.662Z,9.39
2017-12-25T01:06:26.180Z,9.36
2017-12-25T01:07:06.704Z,9.36
2017-12-25T01:07:47.252Z,9.31
2017-12-25T01:08:27.773Z,9.23
2017-12-25T01:09:08.312Z,9.35
2017-12-25T01:09:48.866Z,9.28
2017-12-25T01:10:29.419Z,9.28
2017-12-25T01:11:09.938Z,9.21
2017-12-25T01:11:50.462Z,9.32
2017-12-25T01:12:30.988Z,9.33
2017-12-25T01:13:11.553Z,9.32
2017-12-25T01:13:52.068Z,9.33
2017-12-25T01:14:32.594Z,9.29
2017-12-25T01:15:13.120Z,9.38
2017-12-25T01:15:53.656Z,9.24
2017-12-25T01:16:34.148Z,9.24
2017-12-25T01:17:14.656Z,9.33
2017-12-25T01:17:55.194Z,9.35
2017-12-25T01:18:35.744Z,9.28
2017-12-25T01:19:16.273Z,9.33
2017-12-25T01:19:56.805Z,9.29
2017-12-25T01:20:37.322Z,9.32
2017-12-25T01:21:17.863Z,9.28
2017-12-25T01:21:58.377Z,9.36
2017-12-25T01:22:38.896Z,9.35
2017-12-25T01:23:19.421Z,9.35
2017-12-25T01:23:59.954Z,9.28
2017-12-25T01:24:40.492Z,9.29
2017-12-25T01:25:21.024Z,9.29
2017-12-25T01:26:01.565Z,9.38
2017-12-25T01:26:42.096Z,9.33
2017-12-25T01:27:22.624Z,9.33
2017-12-25T01:28:03.160Z,9.28
2017-12-25T01:28:43.679Z,9.31
2017-12-25T01:29:24.201Z,9.28
2017-12-25T01:30:04.738Z,9.35
2017-12-25T01:30:45.268Z,9.36
2017-12-25T01:31:25.812Z,9.38
2017-12-25T01:32:06.327Z,9.35
2017-12-25T01:32:46.869Z,9.33
2017-12-25T01:33:27.414Z,9.35
2017-12-25T01:34:07.939Z,9.39
2017-12-25T01:34:48.446Z,9.32
2017-12-25T01:35:28.984Z,9.31
2017-12-25T01:36:09.497Z,9.28
2017-12-25T01:36:50.024Z,9.31
2017-12-25T01:37:30.525Z,9.32
2017-12-25T01:38:11.063Z,9.29
2017-12-25T01:38:51.616Z,9.35
2017-12-25T01:39:32.139Z,9.31
2017-12-25T01:40:12.658Z,9.31
2017-12-25T01:40:53.199Z,9.23
2017-12-25T01:41:33.725Z,9.21
2017-12-25T01:42:14.239Z,9.26
2017-12-25T01:42:54.768Z,9.33
2017-12-25T01:43:35.302Z,9.28
2017-12-25T01:44:15.835Z,9.23
2017-12-25T01:44:56.351Z,9.28
2017-12-25T01:45:36.893Z,9.28
2017-12-25T01:46:17.425Z,9.23
2017-12-25T01:46:57.965Z,9.26
2017-12-25T01:47:38.502Z,9.28
2017-12-25T01:48:19.034Z,9.24
2017-12-25T01:48:59.572Z,9.21
2017-12-25T01:49:40.085Z,9.21
2017-12-25T01:50:20.611Z,9.23
2017-12-25T01:51:01.146Z,9.26
2017-12-25T01:51:41.689Z,9.24
2017-12-25T01:52:22.221Z,9.28
2017-12-25T01:53:02.725Z,9.23
2017-12-25T01:53:43.263Z,9.24
2017-12-25T01:54:23.811Z,9.24
2017-12-25T01:55:04.356Z,9.23
2017-12-25T01:55:44.892Z,9.21
2017-12-25T01:56:25.420Z,9.24
2017-12-25T01:57:05.948Z,9.24
2017-12-25T01:57:46.474Z,9.21
2017-12-25T01:58:27.002Z,9.23
2017-12-25T01:59:07.548Z,9.24
2017-12-25T01:59:48.073Z,9.21
2017-12-25T02:00:28.585Z,9.23
2017-12-25T02:01:09.116Z,9.23
2017-12-25T02:01:49.663Z,9.23
2017-12-25T02:02:30.192Z,9.24
2017-12-25T02:03:10.693Z,9.21
2017-12-25T02:03:51.242Z,9.24
2017-12-25T02:04:31.764Z,9.23
2017-12-25T02:05:12.292Z,9.23
2017-12-25T02:05:52.823Z,9.23
2017-12-25T02:06:33.336Z,9.23
2017-12-25T02:07:13.875Z,9.21
2017-12-25T02:07:54.434Z,9.21
2017-12-25T02:08:34.963Z,9.21
2017-12-25T02:09:15.501Z,9.21
2017-12-25T02:09:56.016Z,9.23
2017-12-25T02:10:36.552Z,9.15
2017-12-25T02:11:17.150Z,9.18
2017-12-25T02:11:57.679Z,9.28
2017-12-25T02:12:38.203Z,9.24
2017-12-25T02:13:18.715Z,9.23
2017-12-25T02:13:59.275Z,9.21
2017-12-25T02:14:39.800Z,9.21
2017-12-25T02:15:20.331Z,9.15
2017-12-25T02:16:00.846Z,9.17
2017-12-25T02:16:41.376Z,9.2
2017-12-25T02:17:21.901Z,9.21
2017-12-25T02:18:02.423Z,9.23
2017-12-25T02:18:42.943Z,9.17
2017-12-25T02:19:23.463Z,9.24
2017-12-25T02:20:03.987Z,9.23
2017-12-25T02:20:44.514Z,9.17
2017-12-25T02:21:25.044Z,9.14
2017-12-25T02:22:05.574Z,9.15
2017-12-25T02:22:46.108Z,9.13
2017-12-25T02:23:26.631Z,9.23
2017-12-25T02:24:07.145Z,9.21
2017-12-25T02:24:47.672Z,9.17
2017-12-25T02:25:28.195Z,9.17
2017-12-25T02:26:08.736Z,9.14
2017-12-25T02:26:49.252Z,9.1
2017-12-25T02:27:29.797Z,9.13
2017-12-25T02:28:10.307Z,9.13
2017-12-25T02:28:50.831Z,9.14
2017-12-25T02:29:31.369Z,9.14
2017-12-25T02:30:11.916Z,9.1
2017-12-25T02:30:52.398Z,9.17
2017-12-25T02:31:32.917Z,9.15
2017-12-25T02:32:13.440Z,9.17
2017-12-25T02:32:53.983Z,9.15
2017-12-25T02:33:34.510Z,9.15
2017-12-25T02:34:15.056Z,9.21
2017-12-25T02:34:55.616Z,9.14
2017-12-25T02:35:36.160Z,9.14
2017-12-25T02:36:16.691Z,9.2
2017-12-25T02:36:57.212Z,9.21
2017-12-25T02:37:40.706Z,9.26
2017-12-25T02:38:21.227Z,9.24
2017-12-25T02:39:01.756Z,9.21
2017-12-25T02:39:42.284Z,9.26
2017-12-25T02:40:22.802Z,9.24
2017-12-25T02:41:03.336Z,9.21
2017-12-25T02:41:43.863Z,9.26
2017-12-25T02:42:24.397Z,9.21
2017-12-25T02:43:05.001Z,9.24
2017-12-25T02:43:45.539Z,9.18
2017-12-25T02:44:26.064Z,9.2
2017-12-25T02:45:06.578Z,9.21
2017-12-25T02:45:47.107Z,9.24
2017-12-25T02:46:27.624Z,9.23
2017-12-25T02:47:08.149Z,9.18
2017-12-25T02:47:48.681Z,9.21
2017-12-25T02:48:29.211Z,9.24
2017-12-25T02:49:09.751Z,9.21
2017-12-25T02:49:50.293Z,9.24
2017-12-25T02:50:30.820Z,9.21
2017-12-25T02:51:11.358Z,9.24
2017-12-25T02:51:51.893Z,9.2
2017-12-25T02:52:32.411Z,9.24
2017-12-25T02:53:12.936Z,9.21
2017-12-25T02:53:53.465Z,9.21
2017-12-25T02:54:33.997Z,9.24
2017-12-25T02:55:14.524Z,9.18
2017-12-25T02:55:55.070Z,9.23
2017-12-25T02:56:35.597Z,9.2
2017-12-25T02:57:16.132Z,9.26
2017-12-25T02:57:56.663Z,9.23
2017-12-25T02:58:37.200Z,9.31
2017-12-25T02:59:17.726Z,9.26
2017-12-25T02:59:58.262Z,9.24
2017-12-25T03:00:38.798Z,9.21
2017-12-25T03:01:19.322Z,9.26
2017-12-25T03:01:59.848Z,9.31
2017-12-25T03:02:40.387Z,9.29
2017-12-25T03:03:20.918Z,9.24
2017-12-25T03:04:01.459Z,9.24
2017-12-25T03:04:41.998Z,9.24
2017-12-25T03:05:22.523Z,9.23
2017-12-25T03:06:03.086Z,9.23
2017-12-25T03:06:43.632Z,9.26
2017-12-25T03:07:24.162Z,9.2
2017-12-25T03:08:04.679Z,9.18
2017-12-25T03:08:45.217Z,9.23
2017-12-25T03:09:25.747Z,9.23
2017-12-25T03:10:06.268Z,9.23
2017-12-25T03:10:46.801Z,9.26
2017-12-25T03:11:27.343Z,9.18
2017-12-25T03:12:07.920Z,9.2
2017-12-25T03:12:48.485Z,9.23
2017-12-25T03:13:28.976Z,9.23
2017-12-25T03:14:09.504Z,9.2
2017-12-25T03:14:50.033Z,9.21
2017-12-25T03:15:30.572Z,9.18
2017-12-25T03:16:11.079Z,9.14
2017-12-25T03:16:51.585Z,9.11
2017-12-25T03:17:32.123Z,9.15
2017-12-25T03:18:12.648Z,9.14
2017-12-25T03:18:53.170Z,9.01
2017-12-25T03:19:33.705Z,9.13
2017-12-25T03:20:14.230Z,9.01
2017-12-25T03:20:54.753Z,8.99
2017-12-25T03:21:35.290Z,9.08
2017-12-25T03:22:15.820Z,8.98
2017-12-25T03:22:56.348Z,9.04
2017-12-25T03:23:36.868Z,9.02
2017-12-25T03:24:17.402Z,9.11
2017-12-25T03:24:57.921Z,9.05
2017-12-25T03:25:38.452Z,9.11
2017-12-25T03:26:18.985Z,9.11
2017-12-25T03:26:59.508Z,9.08
2017-12-25T03:27:40.030Z,9.02
2017-12-25T03:28:20.548Z,9.02
2017-12-25T03:29:01.074Z,9.05
2017-12-25T03:29:41.595Z,9.04
2017-12-25T03:30:22.107Z,9.05
2017-12-25T03:31:02.626Z,9.01
2017-12-25T03:31:43.128Z,9.02
2017-12-25T03:32:23.647Z,9.02
2017-12-25T03:33:04.176Z,9.04
2017-12-25T03:33:44.706Z,9.1
2017-12-25T03:34:25.223Z,9.05
2017-12-25T03:35:05.762Z,9.01
2017-12-25T03:35:46.384Z,9.01
2017-12-25T03:36:26.914Z,9.17
2017-12-25T03:37:07.437Z,9.13
2017-12-25T03:37:47.973Z,9.04
2017-12-25T03:38:28.503Z,9.18
2017-12-25T03:39:09.023Z,9.13
2017-12-25T03:39:49.546Z,9.01
2017-12-25T03:40:30.071Z,9.13
2017-12-25T03:41:10.578Z,9.11
2017-12-25T03:41:51.096Z,8.96
2017-12-25T03:42:31.620Z,9.18
2017-12-25T03:43:12.136Z,9.1
2017-12-25T03:43:52.679Z,9.04
2017-12-25T03:44:33.210Z,9.13
2017-12-25T03:45:13.733Z,9.01
2017-12-25T03:45:54.268Z,9.02
2017-12-25T03:46:34.803Z,9.13
2017-12-25T03:47:15.330Z,9.13
2017-12-25T03:47:55.863Z,9.14
2017-12-25T03:48:36.394Z,9.17
2017-12-25T03:50:35.570Z,9.18
2017-12-25T03:51:16.060Z,9.15
2017-12-25T03:51:56.582Z,9.13
2017-12-25T03:52:37.102Z,9.14
2017-12-25T03:53:17.620Z,9.13
2017-12-25T03:53:58.134Z,9.2
2017-12-25T03:54:38.662Z,9.17
2017-12-25T03:55:19.185Z,9.18
2017-12-25T03:55:59.714Z,9.21
2017-12-25T03:56:40.234Z,9.17
2017-12-25T03:57:20.770Z,9.15
2017-12-25T03:58:01.293Z,9.14
2017-12-25T03:58:41.814Z,9.15
2017-12-25T03:59:22.341Z,9.14
2017-12-25T04:00:02.842Z,9.17
2017-12-25T04:00:43.348Z,9.14
2017-12-25T04:01:23.865Z,9.15
2017-12-25T04:02:04.381Z,9.14
2017-12-25T04:02:44.896Z,9.14
2017-12-25T04:03:25.425Z,9.15
2017-12-25T04:04:05.952Z,9.14
2017-12-25T04:04:46.479Z,9.17
2017-12-25T04:05:27.015Z,9.13
2017-12-25T04:06:07.523Z,9.18
2017-12-25T04:06:48.055Z,9.11
2017-12-25T04:07:28.587Z,9.05
2017-12-25T04:08:09.107Z,9.15
2017-12-25T04:08:49.634Z,9.02
2017-12-25T04:09:30.172Z,9.04
2017-12-25T04:10:10.704Z,9.13
2017-12-25T04:10:51.218Z,9.02
2017-12-25T04:11:31.751Z,9.05
2017-12-25T04:12:12.279Z,9.05
2017-12-25T04:12:52.816Z,9.04
2017-12-25T04:13:33.337Z,9.02
2017-12-25T04:14:13.880Z,9.02
2017-12-25T04:14:54.422Z,9.1
2017-12-25T04:15:34.954Z,9.11
2017-12-25T04:16:15.489Z,9.02
2017-12-25T04:16:56.020Z,9.02
2017-12-25T04:17:36.557Z,8.99
2017-12-25T04:18:17.084Z,9.02
2017-12-25T04:18:57.600Z,9.18
2017-12-25T04:19:38.132Z,9.13
2017-12-25T04:20:18.662Z,9.15
2017-12-25T04:20:59.173Z,9.13
2017-12-25T04:21:39.688Z,9.18
2017-12-25T04:22:20.215Z,9.2
2017-12-25T04:23:00.731Z,9.08
2017-12-25T04:23:41.237Z,9.15
2017-12-25T04:24:21.777Z,9.23
2017-12-25T04:25:02.273Z,9.17
2017-12-25T04:25:42.786Z,9.15
2017-12-25T04:26:23.315Z,9.18
2017-12-25T04:27:03.837Z,9.23
2017-12-25T04:27:44.352Z,9.21
2017-12-25T04:28:24.888Z,9.2
2017-12-25T04:29:05.413Z,9.14
2017-12-25T04:29:45.935Z,9.17
2017-12-25T04:30:26.457Z,9.17
2017-12-25T04:31:06.980Z,9.15
2017-12-25T04:31:47.498Z,9.14
2017-12-25T04:32:28.006Z,9.13
2017-12-25T04:33:08.536Z,9.2
2017-12-25T04:33:49.072Z,9.14
2017-12-25T04:34:29.605Z,9.17
2017-12-25T04:35:10.134Z,9.17
2017-12-25T04:35:50.668Z,9.21
2017-12-25T04:36:31.198Z,9.15
2017-12-25T04:37:11.720Z,9.17
2017-12-25T04:37:52.235Z,9.24
2017-12-25T04:38:32.769Z,9.15
2017-12-25T04:39:13.296Z,9.15
2017-12-25T04:39:53.821Z,9.14
2017-12-25T04:40:34.342Z,9.14
2017-12-25T04:41:14.862Z,9.15
2017-12-25T04:41:55.392Z,9.13
2017-12-25T04:42:35.912Z,9.17
2017-12-25T04:43:16.436Z,9.11
2017-12-25T04:43:56.943Z,9.1
2017-12-25T04:44:37.466Z,9.04
2017-12-25T04:45:17.988Z,9.13
2017-12-25T04:45:58.498Z,9.15
2017-12-25T04:46:39.006Z,9.15
2017-12-25T04:47:19.534Z,9.15
2017-12-25T04:48:00.053Z,9.13
2017-12-25T04:48:40.556Z,9.15
2017-12-25T04:49:21.071Z,9.13
2017-12-25T04:50:01.587Z,9.11
2017-12-25T04:50:42.098Z,9.13
2017-12-25T04:51:22.615Z,9.14
2017-12-25T04:52:03.122Z,9.15
2017-12-25T04:52:43.636Z,9.13
2017-12-25T04:53:24.162Z,9.08
2017-12-25T04:54:04.674Z,9.11
2017-12-25T04:54:45.188Z,9.18
2017-12-25T04:55:25.710Z,9.13
2017-12-25T04:56:06.216Z,9.01
2017-12-25T04:56:46.742Z,8.99
2017-12-25T04:57:27.265Z,9.05
2017-12-25T04:58:07.796Z,9.11
2017-12-25T04:58:48.310Z,9.1
2017-12-25T04:59:28.835Z,9.1
2017-12-25T05:00:09.369Z,9.02
2017-12-25T05:00:49.899Z,9.02
2017-12-25T05:01:30.436Z,9.04
2017-12-25T05:02:10.944Z,9.05
2017-12-25T05:02:51.520Z,9.02
2017-12-25T05:03:32.044Z,9.02
2017-12-25T05:04:12.546Z,9.11
2017-12-25T05:04:53.049Z,9.08
2017-12-25T05:05:33.567Z,8.99
2017-12-25T05:06:14.089Z,9.04
2017-12-25T05:06:54.608Z,9.01
2017-12-25T05:07:35.127Z,9.04
2017-12-25T05:08:15.653Z,9.05
2017-12-25T05:08:56.175Z,9.05
2017-12-25T05:09:36.709Z,8.98
2017-12-25T05:10:17.242Z,9.11
2017-12-25T05:10:57.766Z,9.02
2017-12-25T05:11:38.309Z,9.08
2017-12-25T05:12:18.818Z,9.04
2017-12-25T05:12:59.345Z,9.02
2017-12-25T05:13:39.896Z,9.11
2017-12-25T05:14:20.400Z,8.98
2017-12-25T05:15:00.931Z,9.11
2017-12-25T05:15:41.456Z,9.05
2017-12-25T05:16:21.989Z,9.1
2017-12-25T05:17:02.514Z,9.05
2017-12-25T05:17:43.034Z,9.05
2017-12-25T05:18:23.549Z,9.05
2017-12-25T05:19:04.070Z,9.01
2017-12-25T05:19:44.598Z,9.01
2017-12-25T05:20:25.095Z,9.04
2017-12-25T05:21:05.604Z,9.08
2017-12-25T05:21:46.111Z,9.01
2017-12-25T05:22:26.622Z,9.08
2017-12-25T05:23:07.194Z,9.02
2017-12-25T05:23:47.743Z,9.04
2017-12-25T05:24:28.244Z,9.05
2017-12-25T05:25:08.785Z,8.96
2017-12-25T05:25:49.296Z,9.04
2017-12-25T05:26:29.810Z,8.99
2017-12-25T05:27:10.322Z,8.99
2017-12-25T05:27:50.843Z,8.96
2017-12-25T05:28:31.365Z,9.05
2017-12-25T05:29:11.889Z,9.04
2017-12-25T05:29:52.418Z,9.04
2017-12-25T05:30:32.956Z,9.04
2017-12-25T05:31:13.495Z,8.99
2017-12-25T05:31:54.024Z,8.99
2017-12-25T05:32:34.548Z,9.02
2017-12-25T05:33:15.082Z,9.05
2017-12-25T05:33:55.609Z,8.94
2017-12-25T05:34:36.137Z,9.04
2017-12-25T05:35:16.668Z,8.94
2017-12-25T05:35:57.204Z,9.04
2017-12-25T05:36:37.723Z,9.05
2017-12-25T05:37:18.250Z,8.99
2017-12-25T05:37:58.768Z,8.96
2017-12-25T05:38:39.311Z,8.95
2017-12-25T05:39:19.816Z,9.02
2017-12-25T05:40:00.343Z,8.99
2017-12-25T05:40:40.874Z,8.91
2017-12-25T05:41:21.388Z,9.01
2017-12-25T05:42:01.902Z,8.87
2017-12-25T05:42:42.428Z,9.01
2017-12-25T05:43:22.949Z,9.02
2017-12-25T05:44:03.472Z,8.98
2017-12-25T05:44:44.046Z,8.92
2017-12-25T05:45:24.513Z,9.04
2017-12-25T05:46:05.050Z,8.96
2017-12-25T05:46:45.561Z,8.98
2017-12-25T05:47:26.074Z,8.96
2017-12-25T05:48:06.591Z,9.1
2017-12-25T05:48:47.118Z,9.11
2017-12-25T05:49:27.642Z,9.04
2017-12-25T05:50:08.175Z,8.95
2017-12-25T05:50:48.710Z,9.02
2017-12-25T05:51:29.227Z,8.98
2017-12-25T05:52:09.764Z,9.02
2017-12-25T05:52:50.253Z,8.96
2017-12-25T05:53:30.774Z,9.04
2017-12-25T05:54:11.291Z,8.98
2017-12-25T05:54:51.822Z,9.04
2017-12-25T05:55:32.347Z,9.05
2017-12-25T05:56:12.874Z,9.11
2017-12-25T05:56:53.405Z,9.04
2017-12-25T05:57:33.940Z,9.05
2017-12-25T05:58:14.471Z,9.01
2017-12-25T05:58:54.986Z,9.08
2017-12-25T05:59:35.509Z,9.1
2017-12-25T06:00:16.025Z,9.08
2017-12-25T06:00:56.541Z,9.02
2017-12-25T06:01:37.058Z,9.02
2017-12-25T06:02:17.580Z,8.99
2017-12-25T06:02:58.089Z,9.04
2017-12-25T06:03:38.633Z,9.02
2017-12-25T06:04:19.158Z,9.02
2017-12-25T06:04:59.690Z,9.08
2017-12-25T06:05:40.219Z,9.02
2017-12-25T06:06:20.772Z,9.02
2017-12-25T06:07:01.317Z,9.01
2017-12-25T06:07:41.834Z,8.98
2017-12-25T06:08:22.337Z,9.04
2017-12-25T06:09:02.861Z,8.99
2017-12-25T06:09:43.385Z,9.04
2017-12-25T06:10:23.917Z,8.89
2017-12-25T06:11:04.443Z,8.87
2017-12-25T06:11:44.979Z,8.94
2017-12-25T06:12:25.508Z,8.91
2017-12-25T06:13:06.048Z,8.89
2017-12-25T06:13:46.588Z,8.98
2017-12-25T06:14:27.127Z,8.99
2017-12-25T06:15:07.669Z,8.96
2017-12-25T06:15:48.193Z,8.98
2017-12-25T06:16:28.728Z,8.98
2017-12-25T06:17:09.247Z,9.08
2017-12-25T06:17:49.774Z,9.01
2017-12-25T06:18:30.300Z,9.01
2017-12-25T06:19:10.926Z,8.91
2017-12-25T06:19:51.409Z,8.89
2017-12-25T06:20:31.946Z,8.91
2017-12-25T06:21:12.462Z,8.92
2017-12-25T06:21:52.974Z,8.91
2017-12-25T06:22:33.502Z,9.02
2017-12-25T06:23:14.003Z,9.01
2017-12-25T06:23:54.531Z,8.87
2017-12-25T06:24:35.057Z,8.92
2017-12-25T06:25:15.580Z,9.01
2017-12-25T06:25:56.094Z,8.91
2017-12-25T06:26:36.599Z,9.08
2017-12-25T06:27:17.121Z,9.01
2017-12-25T06:27:57.643Z,8.91
2017-12-25T06:28:38.165Z,8.91
2017-12-25T06:29:18.696Z,8.89
2017-12-25T06:29:59.200Z,8.98
2017-12-25T06:30:39.725Z,8.92
2017-12-25T06:31:20.259Z,8.99
2017-12-25T06:32:00.800Z,8.92
2017-12-25T06:32:41.310Z,8.92
2017-12-25T06:33:21.826Z,8.96
2017-12-25T06:34:02.338Z,8.87
2017-12-25T06:34:42.858Z,8.92
2017-12-25T06:35:23.376Z,8.91
2017-12-25T06:36:03.926Z,8.92
2017-12-25T06:36:44.455Z,8.92
2017-12-25T06:37:24.976Z,8.92
2017-12-25T06:38:05.506Z,8.95
2017-12-25T06:38:46.041Z,8.96
2017-12-25T06:39:26.576Z,8.96
2017-12-25T06:40:07.107Z,8.94
2017-12-25T06:40:47.659Z,8.94
2017-12-25T06:41:28.141Z,8.96
2017-12-25T06:42:08.666Z,8.87
2017-12-25T06:42:49.176Z,8.91
2017-12-25T06:43:29.734Z,8.86
2017-12-25T06:44:10.243Z,8.92
2017-12-25T06:44:50.752Z,8.89
2017-12-25T06:45:31.334Z,8.86
2017-12-25T06:46:11.853Z,8.91
2017-12-25T06:46:52.385Z,8.89
2017-12-25T06:47:32.950Z,8.91
2017-12-25T06:48:13.492Z,8.91
2017-12-25T06:48:54.062Z,8.86
2017-12-25T06:49:34.565Z,8.92
2017-12-25T06:50:15.073Z,8.89
2017-12-25T06:50:55.609Z,8.81
2017-12-25T06:51:36.147Z,8.84
2017-12-25T06:52:16.700Z,8.86
2017-12-25T06:52:57.230Z,8.81
2017-12-25T06:53:37.744Z,8.83
2017-12-25T06:54:18.269Z,8.86
2017-12-25T06:54:58.810Z,8.77
2017-12-25T06:55:39.355Z,8.76
2017-12-25T06:56:19.869Z,8.74
2017-12-25T06:57:00.395Z,8.8
2017-12-25T06:57:40.914Z,8.74
2017-12-25T06:58:21.442Z,8.83
2017-12-25T06:59:01.987Z,8.81
2017-12-25T06:59:42.513Z,8.86
2017-12-25T07:00:23.085Z,8.83
2017-12-25T07:01:03.593Z,8.79
2017-12-25T07:01:44.122Z,8.86
2017-12-25T07:02:24.656Z,8.84
2017-12-25T07:03:05.182Z,8.79
2017-12-25T07:03:45.742Z,8.8
2017-12-25T07:04:26.244Z,8.86
2017-12-25T07:05:06.782Z,8.79
2017-12-25T07:05:47.332Z,8.73
2017-12-25T07:06:27.861Z,8.77
2017-12-25T07:07:08.394Z,8.83
2017-12-25T07:07:48.922Z,8.86
2017-12-25T07:08:29.450Z,8.76
2017-12-25T07:09:10.006Z,8.87
2017-12-25T07:09:50.627Z,8.79
2017-12-25T07:10:31.164Z,8.83
2017-12-25T07:11:11.697Z,8.84
2017-12-25T07:11:52.211Z,8.79
2017-12-25T07:12:32.733Z,8.81
2017-12-25T07:13:13.248Z,8.81
2017-12-25T07:13:53.812Z,8.77
2017-12-25T07:14:34.335Z,8.8
2017-12-25T07:15:14.864Z,8.89
2017-12-25T07:15:55.408Z,8.79
2017-12-25T07:16:35.934Z,8.71
2017-12-25T07:17:16.470Z,8.76
2017-12-25T07:17:56.998Z,8.76
2017-12-25T07:18:37.530Z,8.74
2017-12-25T07:19:18.069Z,8.74
2017-12-25T07:19:58.599Z,8.8
2017-12-25T07:20:39.138Z,8.8
2017-12-25T07:21:19.673Z,8.7
2017-12-25T07:22:00.258Z,8.73
2017-12-25T07:22:40.811Z,8.76
2017-12-25T07:23:21.345Z,8.77
2017-12-25T07:24:01.904Z,8.73
2017-12-25T07:24:42.436Z,8.8
2017-12-25T07:25:22.958Z,8.84
2017-12-25T07:26:03.485Z,8.77
2017-12-25T07:26:44.015Z,8.76
2017-12-25T07:27:24.552Z,8.7
2017-12-25T07:28:05.083Z,8.74
2017-12-25T07:28:45.616Z,8.77
2017-12-25T07:29:26.138Z,8.74
2017-12-25T07:30:06.673Z,8.73
2017-12-25T07:30:47.203Z,8.92
2017-12-25T07:31:27.772Z,8.79
2017-12-25T07:32:08.291Z,8.73
2017-12-25T07:32:48.827Z,8.86
2017-12-25T07:33:29.348Z,8.73
2017-12-25T07:34:09.864Z,8.76
2017-12-25T07:34:50.532Z,8.74
2017-12-25T07:35:31.064Z,8.73
2017-12-25T07:36:11.662Z,8.77
2017-12-25T07:36:52.185Z,8.77
2017-12-25T07:37:32.740Z,8.8
2017-12-25T07:38:13.429Z,8.8
2017-12-25T07:38:53.952Z,8.71
2017-12-25T07:39:34.481Z,8.76
2017-12-25T07:40:15.011Z,8.73
2017-12-25T07:40:55.540Z,8.76
2017-12-25T07:41:36.055Z,8.7
2017-12-25T07:42:16.585Z,8.7
2017-12-25T07:42:57.146Z,8.76
2017-12-25T07:43:37.657Z,8.74
2017-12-25T07:44:18.192Z,8.68
2017-12-25T07:44:58.722Z,8.71
2017-12-25T07:45:39.250Z,8.77
2017-12-25T07:46:19.830Z,8.74
2017-12-25T07:47:00.357Z,8.73
2017-12-25T07:47:40.875Z,8.73
2017-12-25T07:48:21.405Z,8.73
2017-12-25T07:50:10.353Z,8.8
2017-12-25T07:50:50.907Z,8.68
2017-12-25T07:51:31.441Z,8.74
2017-12-25T07:52:11.972Z,8.73
2017-12-25T07:52:52.523Z,8.76
2017-12-25T07:53:33.031Z,8.73
2017-12-25T07:54:13.575Z,8.77
2017-12-25T07:54:54.096Z,8.71
2017-12-25T07:55:34.608Z,8.73
2017-12-25T07:56:15.130Z,8.68
2017-12-25T07:56:55.660Z,8.61
2017-12-25T07:57:36.184Z,8.74
2017-12-25T07:58:16.707Z,8.7
2017-12-25T07:58:57.237Z,8.71
2017-12-25T07:59:37.769Z,8.71
2017-12-25T08:00:18.289Z,8.66
2017-12-25T08:00:58.808Z,8.73
2017-12-25T08:01:39.337Z,8.73
2017-12-25T08:02:19.866Z,8.63
2017-12-25T08:03:00.393Z,8.74
2017-12-25T08:03:40.912Z,8.71
2017-12-25T08:04:21.428Z,8.68
2017-12-25T08:05:01.935Z,8.65
2017-12-25T08:05:42.453Z,8.79
2017-12-25T08:06:22.980Z,8.68
2017-12-25T08:07:03.514Z,8.62
2017-12-25T08:07:44.114Z,8.7
2017-12-25T08:08:24.635Z,8.63
2017-12-25T08:09:05.191Z,8.65
2017-12-25T08:09:45.682Z,8.73
2017-12-25T08:10:26.209Z,8.73
2017-12-25T08:11:06.713Z,8.73
2017-12-25T08:11:47.234Z,8.58
2017-12-25T08:12:27.864Z,8.65
2017-12-25T08:13:08.283Z,8.7
